Time;durP1;ratioP1;P1;durP2;ratioP2;P2;SDS_P1;SDS_P2;PMS_P1;PMS_P2;Temp;Humidity;BMP_temperature;BMP_pressure;BME280_temperature;BME280_humidity;BME280_pressure;Samples;Min_cycle;Max_cycle;Signal;HPM_P1;HPM_P2
2023/06/07 00:01:08;;;;;;;5.20;3.70;;;11.60;41.10;;;;;;4987967;28;47026;-67
2023/06/07 00:03:36;;;;;;;10.00;3.97;;;11.60;39.90;;;;;;4990665;28;46493;-66
2023/06/07 00:06:01;;;;;;;11.47;3.43;;;11.60;39.90;;;;;;4985490;28;46540;-67
2023/06/07 00:08:28;;;;;;;5.03;3.53;;;11.50;40.30;;;;;;4984492;28;46903;-66
2023/06/07 00:10:55;;;;;;;6.47;3.90;;;11.40;40.50;;;;;;4988773;28;46635;-67
2023/06/07 00:13:21;;;;;;;6.97;3.77;;;11.40;40.60;;;;;;4985011;28;46315;-67
2023/06/07 00:15:47;;;;;;;14.13;3.53;;;11.30;40.90;;;;;;4982405;28;46466;-67
2023/06/07 00:18:15;;;;;;;5.47;3.63;;;11.30;41.10;;;;;;4994772;28;46587;-67
2023/06/07 00:20:45;;;;;;;8.63;4.47;;;11.20;41.10;;;;;;4987137;28;47204;-67
2023/06/07 00:23:14;;;;;;;6.87;3.90;;;11.20;41.20;;;;;;4989964;28;45798;-68
2023/06/07 00:25:40;;;;;;;5.70;3.90;;;11.20;41.30;;;;;;4985301;28;46336;-68
2023/06/07 00:28:06;;;;;;;5.53;4.17;;;11.20;41.20;;;;;;5003865;28;45897;-68
2023/06/07 00:30:32;;;;;;;7.20;4.50;;;11.20;41.40;;;;;;4985002;28;46512;-67
2023/06/07 00:32:57;;;;;;;5.60;4.20;;;11.20;41.30;;;;;;4988218;28;46500;-67
2023/06/07 00:35:23;;;;;;;5.93;4.30;;;11.20;41.60;;;;;;4987012;28;46434;-67
2023/06/07 00:37:49;;;;;;;11.10;4.33;;;11.10;41.60;;;;;;4986178;28;46382;-67
2023/06/07 00:40:15;;;;;;;7.43;4.40;;;11.10;41.60;;;;;;4985947;28;46431;-67
2023/06/07 00:42:41;;;;;;;5.80;3.80;;;11.20;41.70;;;;;;4986468;28;46347;-67
2023/06/07 00:45:07;;;;;;;6.87;3.90;;;11.20;41.60;;;;;;4986572;28;46655;-67
2023/06/07 00:47:35;;;;;;;4.50;3.43;;;11.20;41.60;;;;;;4984122;28;45852;-67
2023/06/07 00:50:02;;;;;;;6.10;4.50;;;11.30;41.70;;;;;;4983579;28;46684;-67
2023/06/07 00:52:28;;;;;;;7.47;4.03;;;11.20;41.70;;;;;;4991203;28;46679;-67
2023/06/07 00:54:54;;;;;;;5.27;3.90;;;11.30;41.70;;;;;;4990905;28;46568;-67
2023/06/07 00:57:20;;;;;;;9.73;4.60;;;11.30;41.70;;;;;;4981474;28;46371;-67
2023/06/07 00:59:46;;;;;;;5.50;4.37;;;11.30;41.80;;;;;;4982309;28;47089;-67
2023/06/07 01:02:14;;;;;;;6.13;4.30;;;11.30;41.90;;;;;;4990036;28;46432;-67
2023/06/07 01:04:42;;;;;;;9.57;5.10;;;11.30;42.00;;;;;;4988114;28;46419;-66
2023/06/07 01:07:08;;;;;;;8.27;4.40;;;11.20;41.90;;;;;;4979520;28;46437;-67
2023/06/07 01:09:35;;;;;;;8.20;4.20;;;11.30;42.10;;;;;;4986582;28;47188;-66
2023/06/07 01:12:03;;;;;;;6.53;4.00;;;11.20;42.20;;;;;;4991622;28;46410;-66
2023/06/07 01:14:31;;;;;;;4.57;3.63;;;11.20;42.50;;;;;;4985826;28;46477;-67
2023/06/07 01:16:58;;;;;;;6.60;4.07;;;11.10;42.70;;;;;;4984365;28;46458;-68
2023/06/07 01:19:29;;;;;;;7.43;4.53;;;11.00;43.00;;;;;;4985314;28;47050;-67
2023/06/07 01:22:05;;;;;;;8.87;4.17;;;11.00;43.30;;;;;;4986766;28;46403;-67
2023/06/07 01:24:31;;;;;;;12.90;4.30;;;10.90;43.30;;;;;;4985407;28;46211;-66
2023/06/07 01:26:59;;;;;;;5.33;3.90;;;10.90;43.30;;;;;;4986586;28;46751;-66
2023/06/07 01:29:28;;;;;;;9.70;3.80;;;10.80;43.50;;;;;;4985237;28;46885;-67
2023/06/07 01:31:56;;;;;;;4.47;3.50;;;10.70;43.50;;;;;;4987444;28;46381;-68
2023/06/07 01:34:23;;;;;;;24.27;5.13;;;10.70;43.80;;;;;;4984395;28;45924;-67
2023/06/07 01:36:50;;;;;;;11.30;3.73;;;10.60;43.80;;;;;;4978961;28;46474;-67
2023/06/07 01:39:18;;;;;;;6.00;4.60;;;10.60;43.90;;;;;;4989278;28;46673;-67
2023/06/07 01:41:46;;;;;;;7.77;3.93;;;10.60;43.90;;;;;;4990592;28;46294;-67
2023/06/07 01:44:13;;;;;;;6.40;4.03;;;10.50;43.90;;;;;;4985960;28;45866;-67
2023/06/07 01:46:41;;;;;;;8.73;4.10;;;10.50;44.10;;;;;;4984726;28;46521;-67
2023/06/07 01:49:07;;;;;;;5.10;3.80;;;10.40;45.00;;;;;;4986383;28;46359;-67
2023/06/07 01:51:33;;;;;;;5.57;3.90;;;10.40;43.00;;;;;;4979888;28;46493;-66
2023/06/07 01:54:00;;;;;;;5.50;3.43;;;10.40;44.00;;;;;;4975571;28;46493;-68
2023/06/07 01:56:28;;;;;;;6.23;4.20;;;10.40;43.90;;;;;;4983856;28;46603;-68
2023/06/07 01:59:12;;;;;;;6.77;4.50;;;10.40;43.80;;;;;;4981354;28;47163;-67
2023/06/07 02:01:47;;;;;;;5.27;4.30;;;10.40;43.70;;;;;;4977511;28;47025;-67
2023/06/07 02:04:18;;;;;;;6.87;4.07;;;10.40;43.80;;;;;;4980635;28;46096;-65
2023/06/07 02:06:46;;;;;;;6.40;4.47;;;10.40;43.90;;;;;;4983576;28;46563;-67
2023/06/07 02:09:15;;;;;;;11.00;4.40;;;10.40;44.00;;;;;;4985008;28;46398;-67
2023/06/07 02:11:42;;;;;;;5.97;4.07;;;10.40;44.00;;;;;;4974267;28;46186;-67
2023/06/07 02:14:09;;;;;;;6.53;4.20;;;10.40;44.20;;;;;;4983039;28;46426;-66
2023/06/07 02:16:36;;;;;;;5.00;3.63;;;10.00;43.90;;;;;;4984086;28;46393;-67
2023/06/07 02:19:09;;;;;;;5.03;3.90;;;10.30;44.40;;;;;;4981336;28;46573;-67
2023/06/07 02:21:36;;;;;;;9.17;3.87;;;10.20;44.40;;;;;;4985101;28;46555;-67
2023/06/07 02:24:02;;;;;;;5.90;3.87;;;10.10;44.60;;;;;;4989804;28;45877;-67
2023/06/07 02:26:28;;;;;;;9.77;3.50;;;10.10;44.60;;;;;;4979897;28;46560;-66
2023/06/07 02:28:54;;;;;;;6.53;4.20;;;10.00;44.60;;;;;;4980794;28;47009;-67
2023/06/07 02:31:20;;;;;;;7.77;4.70;;;10.00;44.70;;;;;;4984473;28;46497;-67
2023/06/07 02:33:48;;;;;;;6.70;4.10;;;10.00;44.80;;;;;;4987139;28;46445;-67
2023/06/07 02:36:13;;;;;;;8.00;5.50;;;10.00;44.80;;;;;;4983163;28;45862;-67
2023/06/07 02:38:39;;;;;;;8.60;4.17;;;9.90;45.80;;;;;;4982480;28;46355;-67
2023/06/07 02:41:05;;;;;;;7.40;4.60;;;9.90;45.70;;;;;;4987246;28;46395;-67
2023/06/07 02:43:30;;;;;;;14.93;5.00;;;9.90;45.60;;;;;;4985109;28;45852;-67
2023/06/07 02:45:56;;;;;;;6.40;4.53;;;10.00;44.70;;;;;;4988791;28;46604;-67
2023/06/07 02:48:22;;;;;;;14.50;4.83;;;10.00;44.70;;;;;;4978504;28;47090;-68
2023/06/07 02:50:48;;;;;;;6.77;4.23;;;9.90;45.90;;;;;;4982901;28;45918;-67
2023/06/07 02:53:13;;;;;;;7.53;4.60;;;9.90;46.00;;;;;;4988101;28;46785;-67
2023/06/07 02:55:39;;;;;;;6.87;4.80;;;9.90;46.00;;;;;;4979003;28;46652;-67
2023/06/07 02:58:05;;;;;;;16.57;4.90;;;9.90;46.10;;;;;;4985600;28;46505;-67
2023/06/07 03:00:32;;;;;;;10.63;4.63;;;9.90;46.10;;;;;;4984817;28;46345;-67
2023/06/07 03:02:58;;;;;;;7.17;4.30;;;9.90;45.50;;;;;;4979521;28;46325;-67
2023/06/07 03:05:26;;;;;;;6.43;4.40;;;9.80;46.30;;;;;;4991265;28;46843;-67
2023/06/07 03:07:52;;;;;;;5.43;4.10;;;9.80;46.20;;;;;;4985413;28;46701;-68
2023/06/07 03:10:18;;;;;;;14.23;4.77;;;9.80;46.20;;;;;;4984281;28;46412;-68
2023/06/07 03:12:44;;;;;;;7.13;5.13;;;9.90;45.30;;;;;;4984272;28;46511;-66
2023/06/07 03:15:10;;;;;;;5.77;4.53;;;9.80;46.10;;;;;;4980473;28;45971;-67
2023/06/07 03:17:36;;;;;;;6.73;4.60;;;9.90;46.20;;;;;;4983959;28;46493;-67
2023/06/07 03:20:06;;;;;;;8.27;4.50;;;9.90;46.10;;;;;;4983814;28;46423;-68
2023/06/07 03:22:31;;;;;;;7.00;5.20;;;9.90;46.00;;;;;;4987932;28;46504;-68
2023/06/07 03:24:57;;;;;;;11.23;5.70;;;9.90;46.00;;;;;;4984881;28;46511;-68
2023/06/07 03:27:23;;;;;;;10.47;5.77;;;10.00;44.10;;;;;;4987807;28;46362;-68
2023/06/07 03:29:50;;;;;;;14.23;4.70;;;10.00;45.00;;;;;;4988240;28;46508;-68
2023/06/07 03:32:16;;;;;;;12.03;4.30;;;10.00;44.90;;;;;;4987692;28;46422;-66
2023/06/07 03:34:42;;;;;;;12.83;5.10;;;10.10;44.90;;;;;;4981967;28;46438;-67
2023/06/07 03:37:09;;;;;;;10.30;4.80;;;10.20;45.00;;;;;;4988795;28;46497;-66
2023/06/07 03:39:36;;;;;;;7.00;5.13;;;10.20;44.80;;;;;;4993480;28;45734;-68
2023/06/07 03:42:01;;;;;;;7.47;4.97;;;10.30;44.80;;;;;;4990252;28;46510;-68
2023/06/07 03:44:27;;;;;;;7.73;4.27;;;10.30;44.60;;;;;;4982829;28;46474;-68
2023/06/07 03:46:53;;;;;;;12.83;4.87;;;10.30;44.60;;;;;;4990292;28;46362;-68
2023/06/07 03:49:18;;;;;;;8.50;3.93;;;10.40;44.40;;;;;;4991551;28;46457;-67
2023/06/07 03:51:44;;;;;;;5.93;4.37;;;10.40;44.40;;;;;;4983782;28;46086;-67
2023/06/07 03:54:10;;;;;;;10.00;5.00;;;10.40;44.40;;;;;;4985899;28;45871;-68
2023/06/07 03:56:36;;;;;;;6.30;4.20;;;10.40;44.40;;;;;;4988779;28;46435;-67
2023/06/07 03:59:02;;;;;;;9.53;4.50;;;10.40;44.40;;;;;;4990880;28;46324;-68
2023/06/07 04:01:28;;;;;;;6.93;4.40;;;10.50;44.50;;;;;;4989919;28;46477;-66
2023/06/07 04:03:53;;;;;;;9.97;5.20;;;10.50;44.40;;;;;;4986470;28;46656;-67
2023/06/07 04:06:24;;;;;;;12.17;4.50;;;10.60;44.30;;;;;;4990637;28;46382;-67
2023/06/07 04:08:51;;;;;;;9.00;4.63;;;10.70;44.10;;;;;;4984160;28;46457;-67
2023/06/07 04:11:18;;;;;;;5.53;3.80;;;10.90;42.80;;;;;;4980709;28;46434;-67
2023/06/07 04:13:44;;;;;;;6.27;4.50;;;10.80;43.70;;;;;;4986663;28;47820;-67
2023/06/07 04:16:11;;;;;;;7.93;4.60;;;10.90;43.80;;;;;;4986768;28;46655;-67
2023/06/07 04:18:36;;;;;;;6.90;4.17;;;11.00;43.60;;;;;;4987435;28;46425;-67
2023/06/07 04:21:03;;;;;;;5.13;4.03;;;11.10;43.50;;;;;;4987027;28;46430;-67
2023/06/07 04:23:28;;;;;;;13.40;5.43;;;11.20;43.10;;;;;;4989451;28;46122;-68
2023/06/07 04:25:55;;;;;;;10.30;4.60;;;11.40;43.00;;;;;;4987002;28;47247;-68
2023/06/07 04:28:23;;;;;;;7.23;4.90;;;11.50;42.80;;;;;;4988571;28;46390;-68
2023/06/07 04:30:53;;;;;;;15.63;5.10;;;11.60;42.70;;;;;;4985812;28;46381;-68
2023/06/07 04:33:19;;;;;;;10.13;5.83;;;11.70;41.30;;;;;;4984706;28;46170;-68
2023/06/07 04:35:48;;;;;;;10.70;5.23;;;11.90;42.00;;;;;;4984649;28;47024;-67
2023/06/07 04:38:16;;;;;;;6.90;5.20;;;12.10;41.60;;;;;;4990415;28;46429;-68
2023/06/07 04:40:48;;;;;;;9.17;4.83;;;12.30;40.70;;;;;;4986833;28;46495;-68
2023/06/07 04:43:18;;;;;;;6.60;4.43;;;12.80;40.40;;;;;;4989844;28;46517;-69
2023/06/07 04:45:46;;;;;;;5.50;3.97;;;14.20;38.90;;;;;;4984424;28;46826;-69
2023/06/07 04:48:13;;;;;;;6.03;3.80;;;15.70;35.90;;;;;;4986568;28;45756;-70
2023/06/07 04:50:41;;;;;;;7.23;4.50;;;17.00;32.70;;;;;;4981716;28;46414;-69
2023/06/07 04:53:10;;;;;;;7.77;4.00;;;18.00;30.90;;;;;;4983245;28;46551;-69
2023/06/07 04:55:37;;;;;;;8.53;4.60;;;19.00;29.20;;;;;;4987973;28;46466;-69
2023/06/07 04:58:05;;;;;;;8.10;4.70;;;19.80;27.40;;;;;;4992106;28;46895;-70
2023/06/07 05:00:32;;;;;;;8.00;5.00;;;20.20;26.10;;;;;;4987652;28;46469;-69
2023/06/07 05:03:06;;;;;;;7.17;4.77;;;20.90;25.10;;;;;;4986102;28;46762;-69
2023/06/07 05:05:32;;;;;;;7.17;4.90;;;21.50;23.80;;;;;;4989128;28;47200;-70
2023/06/07 05:07:58;;;;;;;6.83;4.70;;;22.10;23.30;;;;;;4990450;28;46414;-69
2023/06/07 05:10:24;;;;;;;7.23;4.57;;;22.60;22.00;;;;;;4983443;28;46508;-69
2023/06/07 05:12:49;;;;;;;12.87;4.53;;;22.90;20.70;;;;;;4990110;28;46656;-69
2023/06/07 05:15:15;;;;;;;6.80;5.13;;;23.30;19.90;;;;;;4986681;28;47006;-69
2023/06/07 05:17:41;;;;;;;10.50;4.67;;;23.70;19.20;;;;;;5001825;28;46358;-69
2023/06/07 05:20:10;;;;;;;11.10;4.50;;;24.00;18.40;;;;;;4990144;28;46603;-69
2023/06/07 05:22:38;;;;;;;8.73;4.20;;;24.30;17.60;;;;;;4984353;28;46423;-69
2023/06/07 05:25:04;;;;;;;8.13;4.13;;;24.60;16.90;;;;;;4988795;28;46339;-69
2023/06/07 05:27:30;;;;;;;6.20;4.50;;;25.10;16.10;;;;;;4988608;28;46338;-70
2023/06/07 05:29:56;;;;;;;13.67;4.67;;;25.30;15.00;;;;;;4984585;28;46453;-69
2023/06/07 05:32:21;;;;;;;6.63;4.43;;;25.70;14.40;;;;;;4980447;28;46596;-69
2023/06/07 05:34:48;;;;;;;6.30;4.87;;;26.10;13.60;;;;;;4987938;28;46455;-69
2023/06/07 05:37:14;;;;;;;6.70;4.70;;;26.30;13.00;;;;;;4991430;28;46402;-69
2023/06/07 05:39:41;;;;;;;5.97;4.37;;;26.50;12.30;;;;;;4985133;28;46443;-69
2023/06/07 05:42:07;;;;;;;7.63;4.60;;;26.70;10.10;;;;;;4983663;28;46429;-68
2023/06/07 05:44:34;;;;;;;7.40;4.60;;;26.80;10.60;;;;;;4990887;28;46442;-67
2023/06/07 05:47:00;;;;;;;5.43;4.10;;;26.80;10.70;;;;;;4987974;28;46783;-70
2023/06/07 05:49:25;;;;;;;7.17;5.20;;;27.00;10.40;;;;;;4985888;28;45812;-70
2023/06/07 05:51:51;;;;;;;6.43;4.80;;;26.30;11.90;;;;;;4987030;28;46278;-69
2023/06/07 05:54:17;;;;;;;5.70;4.50;;;25.80;13.30;;;;;;4986283;28;46375;-68
2023/06/07 05:56:43;;;;;;;5.90;4.90;;;24.40;16.40;;;;;;4987495;28;46393;-69
2023/06/07 05:59:08;;;;;;;8.57;5.47;;;23.50;18.80;;;;;;4990725;28;46429;-68
2023/06/07 06:01:34;;;;;;;9.87;5.83;;;22.80;20.20;;;;;;4983284;28;46362;-69
2023/06/07 06:04:01;;;;;;;10.20;6.13;;;22.20;21.40;;;;;;4984271;28;48244;-68
2023/06/07 06:06:27;;;;;;;10.87;6.57;;;21.60;23.10;;;;;;4987671;28;46513;-68
2023/06/07 06:08:52;;;;;;;11.13;6.93;;;21.50;22.30;;;;;;4982738;28;45901;-68
2023/06/07 06:11:18;;;;;;;7.93;6.20;;;21.30;22.20;;;;;;4978553;28;46896;-69
2023/06/07 06:13:44;;;;;;;11.73;7.00;;;21.20;22.10;;;;;;4987491;28;46756;-69
2023/06/07 06:16:10;;;;;;;9.90;7.87;;;21.00;21.90;;;;;;4981904;28;46668;-68
2023/06/07 06:18:36;;;;;;;16.03;8.43;;;20.90;21.90;;;;;;4984716;28;46478;-67
2023/06/07 06:21:03;;;;;;;10.20;8.27;;;20.90;21.50;;;;;;4978430;28;46183;-67
2023/06/07 06:23:28;;;;;;;13.33;7.50;;;20.90;21.30;;;;;;4978849;28;46497;-68
2023/06/07 06:25:54;;;;;;;11.90;8.00;;;21.10;21.00;;;;;;4982630;28;46362;-67
2023/06/07 06:28:21;;;;;;;11.23;8.43;;;21.10;20.60;;;;;;4981071;28;46483;-68
2023/06/07 06:30:47;;;;;;;13.23;7.70;;;21.10;20.70;;;;;;4979577;28;46547;-65
2023/06/07 06:33:12;;;;;;;13.67;8.00;;;21.20;20.50;;;;;;4980615;28;47014;-66
2023/06/07 06:35:39;;;;;;;15.07;8.03;;;21.10;20.20;;;;;;4977360;28;46537;-66
2023/06/07 06:38:04;;;;;;;10.67;8.63;;;21.10;20.40;;;;;;4978554;28;46470;-68
2023/06/07 06:40:30;;;;;;;12.07;8.07;;;21.10;20.60;;;;;;4967562;28;46626;-69
2023/06/07 06:42:56;;;;;;;15.87;8.53;;;21.10;20.70;;;;;;4977352;28;47102;-67
2023/06/07 06:45:22;;;;;;;15.43;9.50;;;21.30;20.60;;;;;;4985027;28;46426;-67
2023/06/07 06:47:47;;;;;;;11.20;8.40;;;21.20;20.90;;;;;;4982744;28;46560;-68
2023/06/07 06:50:13;;;;;;;10.90;8.40;;;21.00;21.20;;;;;;4977972;28;46854;-68
2023/06/07 06:52:41;;;;;;;19.83;8.77;;;20.70;21.60;;;;;;4988413;28;47287;-68
2023/06/07 06:55:07;;;;;;;10.90;8.30;;;20.80;21.60;;;;;;4987980;28;46355;-67
2023/06/07 06:57:33;;;;;;;13.70;9.67;;;20.90;21.20;;;;;;5005971;28;46508;-67
2023/06/07 07:00:00;;;;;;;15.50;7.93;;;21.00;21.30;;;;;;4987314;28;46473;-65
2023/06/07 07:02:26;;;;;;;12.87;8.80;;;21.00;21.30;;;;;;4984543;28;47201;-69
2023/06/07 07:04:52;;;;;;;10.70;7.97;;;21.00;21.50;;;;;;4986771;28;46389;-67
2023/06/07 07:07:18;;;;;;;11.57;7.80;;;20.90;21.50;;;;;;4984179;28;46507;-69
2023/06/07 07:09:44;;;;;;;12.00;8.53;;;20.90;21.80;;;;;;4984699;28;46903;-68
2023/06/07 07:12:11;;;;;;;11.30;8.47;;;21.10;21.00;;;;;;4986470;28;46957;-68
2023/06/07 07:14:36;;;;;;;10.80;7.83;;;21.10;21.80;;;;;;4992428;28;46421;-68
2023/06/07 07:17:02;;;;;;;21.07;7.53;;;21.30;21.50;;;;;;4985759;28;46347;-69
2023/06/07 07:19:28;;;;;;;11.13;7.10;;;21.30;21.50;;;;;;4985481;28;46742;-69
2023/06/07 07:21:54;;;;;;;11.60;7.23;;;21.50;20.50;;;;;;5016469;23;47857;-68
2023/06/07 07:24:20;;;;;;;9.17;7.40;;;21.60;21.40;;;;;;5040143;28;46330;-69
2023/06/07 07:26:46;;;;;;;17.63;7.70;;;21.80;20.90;;;;;;5025093;28;46721;-69
2023/06/07 07:29:11;;;;;;;11.33;8.07;;;22.00;20.70;;;;;;5021799;28;46620;-70
2023/06/07 07:31:37;;;;;;;11.77;6.53;;;22.20;20.30;;;;;;5022337;28;46511;-67
2023/06/07 07:34:03;;;;;;;10.30;7.33;;;22.40;20.20;;;;;;5030342;28;46400;-66
2023/06/07 07:36:33;;;;;;;9.63;7.43;;;22.50;19.90;;;;;;5025809;28;46381;-65
2023/06/07 07:38:59;;;;;;;8.73;6.53;;;22.50;19.70;;;;;;5021885;28;46807;-66
2023/06/07 07:41:25;;;;;;;10.07;6.37;;;22.60;19.90;;;;;;5014705;28;47100;-68
2023/06/07 07:43:51;;;;;;;8.20;5.50;;;22.50;19.90;;;;;;5025360;28;46474;-68
2023/06/07 07:46:17;;;;;;;8.10;5.57;;;22.50;19.80;;;;;;5030244;28;46792;-68
2023/06/07 07:48:43;;;;;;;9.23;6.50;;;22.60;19.50;;;;;;5032468;28;46360;-68
2023/06/07 07:51:09;;;;;;;10.23;7.40;;;22.80;19.10;;;;;;5023910;28;46385;-68
2023/06/07 07:53:35;;;;;;;10.57;7.37;;;23.00;17.80;;;;;;5023653;28;46687;-68
2023/06/07 07:56:01;;;;;;;9.90;5.37;;;23.20;18.50;;;;;;5021782;28;46858;-67
2023/06/07 07:58:27;;;;;;;6.90;4.87;;;23.50;17.90;;;;;;5032972;28;46414;-69
2023/06/07 08:00:52;;;;;;;8.77;6.13;;;23.70;17.50;;;;;;5025708;28;47076;-69
2023/06/07 08:03:18;;;;;;;9.70;6.00;;;23.80;17.10;;;;;;5017895;28;46420;-68
2023/06/07 08:05:44;;;;;;;7.77;6.40;;;23.20;17.70;;;;;;5027373;28;46386;-68
2023/06/07 08:08:10;;;;;;;5.87;4.67;;;23.10;18.20;;;;;;5027449;28;46470;-70
2023/06/07 08:10:36;;;;;;;7.00;4.63;;;23.50;18.10;;;;;;5032564;28;46920;-69
2023/06/07 08:13:02;;;;;;;5.27;3.60;;;23.70;17.30;;;;;;5020238;28;46618;-68
2023/06/07 08:15:27;;;;;;;6.57;4.07;;;23.70;16.80;;;;;;5028360;28;46378;-68
2023/06/07 08:17:53;;;;;;;5.73;4.23;;;23.80;16.40;;;;;;5027038;28;46488;-69
2023/06/07 08:20:20;;;;;;;5.90;4.57;;;23.80;16.00;;;;;;5027067;28;46482;-68
2023/06/07 08:22:50;;;;;;;5.90;3.80;;;23.80;15.80;;;;;;5019217;28;46555;-67
2023/06/07 08:25:16;;;;;;;6.90;3.83;;;23.90;15.20;;;;;;5026984;28;46786;-67
2023/06/07 08:27:42;;;;;;;5.87;4.40;;;23.80;14.80;;;;;;5027200;28;46457;-67
2023/06/07 08:30:09;;;;;;;6.43;5.00;;;23.50;15.10;;;;;;5020831;28;47040;-70
2023/06/07 08:32:34;;;;;;;6.90;4.60;;;23.40;14.90;;;;;;5023926;28;46430;-68
2023/06/07 08:35:00;;;;;;;7.47;3.80;;;23.50;15.70;;;;;;5023049;28;46448;-68
2023/06/07 08:37:26;;;;;;;6.10;4.10;;;23.60;15.70;;;;;;5022388;28;46958;-69
2023/06/07 08:39:52;;;;;;;7.10;4.10;;;23.90;15.20;;;;;;5019206;28;47622;-69
2023/06/07 08:42:17;;;;;;;6.20;3.60;;;24.00;14.30;;;;;;5019914;28;46991;-67
2023/06/07 08:44:43;;;;;;;5.97;2.60;;;24.10;14.20;;;;;;5019358;28;46410;-71
2023/06/07 08:47:13;;;;;;;5.27;3.43;;;24.20;14.30;;;;;;5022674;28;46494;-70
2023/06/07 08:49:40;;;;;;;5.70;3.77;;;23.90;15.10;;;;;;5031888;28;46453;-69
2023/06/07 08:52:09;;;;;;;8.40;4.20;;;24.10;14.20;;;;;;5023033;28;46404;-68
2023/06/07 08:54:40;;;;;;;7.40;3.60;;;23.90;14.10;;;;;;5029770;28;46344;-69
2023/06/07 08:57:07;;;;;;;5.87;4.00;;;23.60;13.90;;;;;;5026070;28;46892;-67
2023/06/07 08:59:34;;;;;;;7.43;4.40;;;23.30;14.30;;;;;;5023922;28;46379;-68
2023/06/07 09:02:01;;;;;;;5.80;3.57;;;22.90;15.00;;;;;;5026855;28;46453;-71
2023/06/07 09:04:27;;;;;;;15.80;4.47;;;22.60;16.50;;;;;;5025618;28;46441;-71
2023/06/07 09:06:53;;;;;;;4.67;3.27;;;22.60;15.80;;;;;;5022485;28;46437;-71
2023/06/07 09:09:19;;;;;;;5.90;3.50;;;22.70;15.70;;;;;;5022414;28;46565;-72
2023/06/07 09:11:52;;;;;;;5.70;3.47;;;23.50;13.50;;;;;;5023328;28;46470;-72
2023/06/07 09:14:18;;;;;;;5.30;3.07;;;23.70;14.00;;;;;;5027973;28;46247;-71
2023/06/07 09:16:54;;;;;;;9.43;3.70;;;24.00;14.10;;;;;;5028150;28;46800;-71
2023/06/07 09:19:38;;;;;;;6.07;2.60;;;24.30;13.30;;;;;;5020635;28;46050;-73
2023/06/07 09:22:06;;;;;;;4.60;2.77;;;24.70;11.70;;;;;;5016949;28;46490;-73
2023/06/07 09:24:33;;;;;;;4.17;2.80;;;24.70;11.90;;;;;;5025188;28;46495;-71
2023/06/07 09:27:00;;;;;;;5.20;2.20;;;24.60;11.80;;;;;;5026126;28;46492;-72
2023/06/07 09:29:29;;;;;;;5.70;3.20;;;24.60;12.10;;;;;;5024096;28;46532;-71
2023/06/07 09:31:56;;;;;;;5.33;3.17;;;24.00;11.10;;;;;;5022260;28;46370;-71
2023/06/07 09:34:26;;;;;;;4.90;2.90;;;23.90;12.10;;;;;;5025529;28;45871;-71
2023/06/07 09:36:57;;;;;;;5.00;2.90;;;23.80;12.30;;;;;;5024281;28;45836;-70
2023/06/07 09:39:27;;;;;;;4.70;3.03;;;23.80;12.50;;;;;;5025026;28;46495;-70
2023/06/07 09:41:56;;;;;;;4.60;2.67;;;23.40;11.20;;;;;;5018957;28;45856;-69
2023/06/07 09:44:25;;;;;;;4.63;2.53;;;23.50;12.20;;;;;;5022598;28;45870;-69
2023/06/07 09:46:51;;;;;;;5.20;2.80;;;23.40;11.60;;;;;;5026528;28;45812;-70
2023/06/07 09:49:23;;;;;;;4.83;2.87;;;23.40;12.10;;;;;;5025660;28;46447;-67
2023/06/07 09:51:51;;;;;;;5.30;2.70;;;23.40;11.20;;;;;;5019978;28;45915;-69
2023/06/07 09:54:17;;;;;;;4.73;2.67;;;23.40;12.30;;;;;;5017843;28;46822;-69
2023/06/07 09:56:43;;;;;;;5.10;3.00;;;23.40;12.20;;;;;;5024005;28;46584;-70
2023/06/07 09:59:11;;;;;;;6.03;2.80;;;23.10;11.70;;;;;;5041191;28;46374;-70
2023/06/07 10:01:45;;;;;;;4.13;2.77;;;23.10;10.90;;;;;;5026063;28;46714;-69
2023/06/07 10:04:12;;;;;;;6.90;2.90;;;23.20;10.50;;;;;;5020196;28;46559;-70
2023/06/07 10:06:42;;;;;;;5.90;3.63;;;23.30;10.60;;;;;;5025131;28;46750;-69
2023/06/07 10:09:10;;;;;;;4.17;2.80;;;23.10;10.60;;;;;;5023262;28;47111;-69
2023/06/07 10:11:37;;;;;;;6.20;3.00;;;23.30;9.60;;;;;;5019098;28;46457;-68
2023/06/07 10:14:19;;;;;;;7.07;3.03;;;23.40;10.30;;;;;;5023108;28;46926;-66
2023/06/07 10:16:54;;;;;;;4.00;2.70;;;24.00;9.70;;;;;;5023985;28;46445;-66
2023/06/07 10:19:30;;;;;;;4.40;2.67;;;24.50;9.40;;;;;;5025336;28;47071;-71
2023/06/07 10:21:58;;;;;;;6.57;2.60;;;25.10;7.90;;;;;;5015966;28;46576;-67
2023/06/07 10:24:39;;;;;;;7.73;2.80;;;25.20;8.20;;;;;;5024842;28;46362;-67
2023/06/07 10:27:14;;;;;;;6.83;3.00;;;25.30;7.70;;;;;;5023325;28;46451;-69
2023/06/07 10:29:53;;;;;;;5.07;2.60;;;25.40;7.30;;;;;;5023870;28;46816;-68
2023/06/07 10:32:26;;;;;;;4.20;2.57;;;25.40;7.80;;;;;;5017152;28;46531;-68
2023/06/07 10:34:54;;;;;;;6.60;2.80;;;25.40;7.60;;;;;;5026335;28;45847;-68
2023/06/07 10:37:21;;;;;;;7.97;3.23;;;25.50;7.70;;;;;;5023697;28;46378;-68
2023/06/07 10:39:46;;;;;;;7.20;2.70;;;25.60;7.60;;;;;;5019929;28;47011;-69
2023/06/07 10:42:13;;;;;;;4.00;2.40;;;25.70;7.30;;;;;;5018318;28;46529;-67
2023/06/07 10:44:39;;;;;;;4.83;2.60;;;25.80;7.30;;;;;;5018679;28;46414;-71
2023/06/07 10:47:29;;;;;;;6.00;2.60;;;25.80;7.20;;;;;;5024040;28;46841;-69
2023/06/07 10:49:55;;;;;;;4.63;2.57;;;25.60;7.00;;;;;;5021839;28;46548;-68
2023/06/07 10:52:21;;;;;;;7.20;3.10;;;25.50;6.40;;;;;;5019185;28;46318;-68
2023/06/07 10:54:47;;;;;;;5.00;3.00;;;25.50;7.30;;;;;;5015710;28;46401;-70
2023/06/07 10:57:14;;;;;;;5.37;2.93;;;25.30;7.30;;;;;;5024507;28;46448;-67
2023/06/07 10:59:40;;;;;;;8.47;3.00;;;25.10;7.50;;;;;;5020730;28;46520;-69
2023/06/07 11:02:26;;;;;;;6.03;2.80;;;25.20;7.30;;;;;;5014985;28;46498;-70
2023/06/07 11:04:56;;;;;;;5.40;3.30;;;25.20;7.20;;;;;;5019825;28;46402;-68
2023/06/07 11:07:30;;;;;;;4.83;3.00;;;25.30;6.90;;;;;;5012040;28;46507;-70
2023/06/07 11:10:05;;;;;;;5.43;3.83;;;25.20;7.30;;;;;;5009484;28;46872;-71
2023/06/07 11:12:44;;;;;;;6.30;3.50;;;24.80;6.30;;;;;;5005428;28;46441;-72
2023/06/07 11:15:28;;;;;;;7.87;3.77;;;24.60;7.00;;;;;;5012225;28;46472;-71
2023/06/07 11:17:57;;;;;;;4.10;2.80;;;24.70;7.00;;;;;;5012339;28;46434;-70
2023/06/07 11:20:37;;;;;;;5.53;3.40;;;24.90;6.80;;;;;;5010674;28;47795;-73
2023/06/07 11:23:33;;;;;;;6.13;2.70;;;25.00;5.60;;;;;;5010797;28;46489;-73
2023/06/07 11:26:05;;;;;;;5.13;3.00;;;25.10;5.90;;;;;;5014683;28;45875;-75
2023/06/07 11:28:33;;;;;;;5.17;3.07;;;25.20;5.50;;;;;;5013632;28;46394;-71
2023/06/07 11:31:01;;;;;;;7.33;3.67;;;25.00;5.70;;;;;;5010873;28;46523;-71
2023/06/07 11:33:27;;;;;;;5.83;3.23;;;24.90;5.40;;;;;;5009036;28;46611;-72
2023/06/07 11:35:54;;;;;;;5.47;2.97;;;24.90;5.30;;;;;;5012408;28;46497;-73
2023/06/07 11:38:20;;;;;;;10.83;3.80;;;25.30;5.20;;;;;;5006577;28;46847;-72
2023/06/07 11:40:47;;;;;;;6.90;3.67;;;25.40;4.40;;;;;;5010944;28;46487;-72
2023/06/07 11:43:13;;;;;;;6.27;3.40;;;25.20;4.00;;;;;;5013058;28;46487;-73
2023/06/07 11:45:40;;;;;;;6.27;3.43;;;25.00;5.00;;;;;;5012267;28;45961;-71
2023/06/07 11:48:06;;;;;;;6.00;3.57;;;25.10;4.70;;;;;;5018147;28;46405;-72
2023/06/07 11:50:38;;;;;;;6.10;3.13;;;25.10;4.70;;;;;;5011875;28;46613;-72
2023/06/07 11:53:06;;;;;;;9.93;3.50;;;25.30;3.60;;;;;;5016594;28;46472;-71
2023/06/07 11:55:34;;;;;;;8.40;3.27;;;25.50;4.20;;;;;;5017703;28;46622;-71
2023/06/07 11:58:02;;;;;;;8.77;3.37;;;25.50;4.20;;;;;;5015022;28;46549;-73
2023/06/07 12:00:31;;;;;;;4.87;3.30;;;25.20;4.40;;;;;;5015267;28;46385;-72
2023/06/07 12:02:58;;;;;;;7.73;3.17;;;24.90;4.80;;;;;;5008400;28;46532;-74
2023/06/07 12:05:30;;;;;;;6.97;3.50;;;24.70;4.80;;;;;;5015157;28;46480;-72
2023/06/07 12:08:04;;;;;;;4.83;3.20;;;24.90;4.60;;;;;;5015858;28;46437;-72
2023/06/07 12:10:36;;;;;;;5.43;3.10;;;25.00;4.10;;;;;;5011755;28;46456;-71
2023/06/07 12:13:18;;;;;;;8.13;3.07;;;25.20;2.70;;;;;;5015235;28;46394;-70
2023/06/07 12:15:55;;;;;;;5.30;3.10;;;25.20;3.60;;;;;;5015395;28;46439;-72
2023/06/07 12:18:25;;;;;;;6.73;3.20;;;25.10;3.50;;;;;;5011768;28;46452;-70
2023/06/07 12:21:01;;;;;;;7.37;3.37;;;25.00;3.50;;;;;;5010911;28;46984;-72
2023/06/07 12:23:26;;;;;;;5.87;2.80;;;24.80;2.40;;;;;;5008627;28;46560;-71
2023/06/07 12:26:07;;;;;;;5.50;3.47;;;24.60;3.20;;;;;;5015021;28;46625;-71
2023/06/07 12:28:33;;;;;;;7.83;3.70;;;24.70;3.20;;;;;;5014183;28;46555;-72
2023/06/07 12:30:59;;;;;;;6.20;3.80;;;24.60;3.20;;;;;;5008387;28;47786;-72
2023/06/07 12:33:28;;;;;;;8.60;3.27;;;24.40;3.00;;;;;;5012401;28;46768;-72
2023/06/07 12:35:57;;;;;;;6.27;3.40;;;24.50;1.90;;;;;;5011938;28;46424;-71
2023/06/07 12:38:24;;;;;;;7.03;3.93;;;24.90;1.20;;;;;;5008360;28;46932;-73
2023/06/07 12:40:50;;;;;;;6.63;3.60;;;25.20;1.00;;;;;;5011904;28;46484;-72
2023/06/07 12:43:16;;;;;;;14.40;3.63;;;25.40;1.00;;;;;;5013365;28;46587;-72
2023/06/07 12:45:42;;;;;;;8.70;3.50;;;25.50;1.00;;;;;;5015693;28;47045;-72
2023/06/07 12:48:07;;;;;;;13.00;3.77;;;25.40;1.00;;;;;;5012630;28;46585;-72
2023/06/07 12:50:33;;;;;;;5.13;3.33;;;25.40;1.00;;;;;;5011658;28;46516;-74